sensor_id;sensor_type;location;lat;lon;timestamp;P1;durP1;ratioP1;P2;durP2;ratioP2
67500;SDS011;54349;52.528;19.760;2022-08-21T00:01:55;4.20;;;2.90;;
67500;SDS011;54349;52.528;19.760;2022-08-21T00:04:24;4.70;;;2.80;;
67500;SDS011;54349;52.528;19.760;2022-08-21T00:06:57;4.00;;;2.50;;
67500;SDS011;54349;52.528;19.760;2022-08-21T00:09:26;3.40;;;2.40;;
67500;SDS011;54349;52.528;19.760;2022-08-21T00:11:54;4.00;;;2.60;;
67500;SDS011;54349;52.528;19.760;2022-08-21T00:14:22;7.30;;;2.70;;
67500;SDS011;54349;52.528;19.760;2022-08-21T00:16:51;3.80;;;2.40;;
67500;SDS011;54349;52.528;19.760;2022-08-21T00:19:24;3.90;;;2.40;;
67500;SDS011;54349;52.528;19.760;2022-08-21T00:21:53;5.40;;;2.50;;
67500;SDS011;54349;52.528;19.760;2022-08-21T00:24:23;3.60;;;2.40;;
67500;SDS011;54349;52.528;19.760;2022-08-21T00:26:52;3.90;;;2.60;;
67500;SDS011;54349;52.528;19.760;2022-08-21T00:29:21;5.50;;;2.50;;
67500;SDS011;54349;52.528;19.760;2022-08-21T00:31:49;4.00;;;2.40;;
67500;SDS011;54349;52.528;19.760;2022-08-21T00:34:17;3.60;;;2.40;;
67500;SDS011;54349;52.528;19.760;2022-08-21T00:36:45;3.50;;;2.40;;
67500;SDS011;54349;52.528;19.760;2022-08-21T00:39:13;4.10;;;2.40;;
67500;SDS011;54349;52.528;19.760;2022-08-21T00:41:42;4.40;;;2.30;;
67500;SDS011;54349;52.528;19.760;2022-08-21T00:44:13;4.50;;;2.50;;
67500;SDS011;54349;52.528;19.760;2022-08-21T00:46:43;4.60;;;2.70;;
67500;SDS011;54349;52.528;19.760;2022-08-21T00:49:12;4.60;;;2.60;;
67500;SDS011;54349;52.528;19.760;2022-08-21T00:51:45;3.80;;;2.10;;
67500;SDS011;54349;52.528;19.760;2022-08-21T00:54:22;4.00;;;2.30;;
67500;SDS011;54349;52.528;19.760;2022-08-21T00:56:59;6.10;;;2.50;;
67500;SDS011;54349;52.528;19.760;2022-08-21T00:59:33;6.30;;;2.50;;
67500;SDS011;54349;52.528;19.760;2022-08-21T01:02:06;3.60;;;2.40;;
67500;SDS011;54349;52.528;19.760;2022-08-21T01:04:36;4.00;;;2.30;;
67500;SDS011;54349;52.528;19.760;2022-08-21T01:07:04;5.00;;;2.30;;
67500;SDS011;54349;52.528;19.760;2022-08-21T01:09:33;3.90;;;2.30;;
67500;SDS011;54349;52.528;19.760;2022-08-21T01:12:02;4.20;;;2.50;;
67500;SDS011;54349;52.528;19.760;2022-08-21T01:14:31;3.90;;;2.60;;
67500;SDS011;54349;52.528;19.760;2022-08-21T01:17:01;4.30;;;2.50;;
67500;SDS011;54349;52.528;19.760;2022-08-21T01:19:30;4.50;;;2.50;;
67500;SDS011;54349;52.528;19.760;2022-08-21T01:21:59;4.50;;;2.60;;
67500;SDS011;54349;52.528;19.760;2022-08-21T01:24:27;3.70;;;2.30;;
67500;SDS011;54349;52.528;19.760;2022-08-21T01:26:56;4.60;;;2.50;;
67500;SDS011;54349;52.528;19.760;2022-08-21T01:32:24;4.10;;;2.40;;
67500;SDS011;54349;52.528;19.760;2022-08-21T01:34:53;4.80;;;2.50;;
67500;SDS011;54349;52.528;19.760;2022-08-21T01:37:22;4.50;;;2.50;;
67500;SDS011;54349;52.528;19.760;2022-08-21T01:39:50;3.90;;;2.30;;
67500;SDS011;54349;52.528;19.760;2022-08-21T01:42:19;5.20;;;2.60;;
67500;SDS011;54349;52.528;19.760;2022-08-21T01:44:47;4.50;;;2.40;;
67500;SDS011;54349;52.528;19.760;2022-08-21T01:47:21;3.90;;;2.30;;
67500;SDS011;54349;52.528;19.760;2022-08-21T01:49:50;4.50;;;2.30;;
67500;SDS011;54349;52.528;19.760;2022-08-21T01:52:18;3.60;;;2.30;;
67500;SDS011;54349;52.528;19.760;2022-08-21T01:54:47;7.00;;;2.70;;
67500;SDS011;54349;52.528;19.760;2022-08-21T01:57:23;4.60;;;2.80;;
67500;SDS011;54349;52.528;19.760;2022-08-21T01:59:53;5.60;;;2.90;;
67500;SDS011;54349;52.528;19.760;2022-08-21T02:02:21;4.20;;;2.60;;
67500;SDS011;54349;52.528;19.760;2022-08-21T02:04:49;4.60;;;2.30;;
67500;SDS011;54349;52.528;19.760;2022-08-21T02:07:18;4.30;;;2.20;;
67500;SDS011;54349;52.528;19.760;2022-08-21T02:09:46;4.10;;;2.50;;
67500;SDS011;54349;52.528;19.760;2022-08-21T02:12:14;4.20;;;2.40;;
67500;SDS011;54349;52.528;19.760;2022-08-21T02:14:42;4.80;;;2.30;;
67500;SDS011;54349;52.528;19.760;2022-08-21T02:17:10;4.80;;;2.60;;
67500;SDS011;54349;52.528;19.760;2022-08-21T02:19:38;4.60;;;2.90;;
67500;SDS011;54349;52.528;19.760;2022-08-21T02:22:09;3.90;;;2.50;;
67500;SDS011;54349;52.528;19.760;2022-08-21T02:24:39;3.60;;;2.30;;
67500;SDS011;54349;52.528;19.760;2022-08-21T02:27:23;3.70;;;2.40;;
67500;SDS011;54349;52.528;19.760;2022-08-21T02:29:56;4.40;;;2.80;;
67500;SDS011;54349;52.528;19.760;2022-08-21T02:32:25;3.80;;;2.30;;
67500;SDS011;54349;52.528;19.760;2022-08-21T02:34:54;5.90;;;2.80;;
67500;SDS011;54349;52.528;19.760;2022-08-21T02:37:23;5.10;;;2.50;;
67500;SDS011;54349;52.528;19.760;2022-08-21T02:39:52;4.30;;;2.50;;
67500;SDS011;54349;52.528;19.760;2022-08-21T02:42:20;5.70;;;2.60;;
67500;SDS011;54349;52.528;19.760;2022-08-21T02:44:49;4.30;;;2.50;;
67500;SDS011;54349;52.528;19.760;2022-08-21T02:47:17;4.30;;;2.30;;
67500;SDS011;54349;52.528;19.760;2022-08-21T02:49:45;5.00;;;2.60;;
67500;SDS011;54349;52.528;19.760;2022-08-21T02:52:13;3.70;;;2.30;;
67500;SDS011;54349;52.528;19.760;2022-08-21T02:54:42;5.00;;;2.80;;
67500;SDS011;54349;52.528;19.760;2022-08-21T02:57:10;4.30;;;2.50;;
67500;SDS011;54349;52.528;19.760;2022-08-21T02:59:38;3.70;;;2.30;;
67500;SDS011;54349;52.528;19.760;2022-08-21T03:02:08;4.30;;;2.60;;
67500;SDS011;54349;52.528;19.760;2022-08-21T03:04:36;5.50;;;2.70;;
67500;SDS011;54349;52.528;19.760;2022-08-21T03:07:05;5.40;;;3.00;;
67500;SDS011;54349;52.528;19.760;2022-08-21T03:09:38;4.20;;;2.50;;
67500;SDS011;54349;52.528;19.760;2022-08-21T03:12:22;6.30;;;2.90;;
67500;SDS011;54349;52.528;19.760;2022-08-21T03:14:53;5.80;;;3.00;;
67500;SDS011;54349;52.528;19.760;2022-08-21T03:17:21;4.50;;;2.50;;
67500;SDS011;54349;52.528;19.760;2022-08-21T03:19:57;5.40;;;2.70;;
67500;SDS011;54349;52.528;19.760;2022-08-21T03:22:26;4.10;;;2.50;;
67500;SDS011;54349;52.528;19.760;2022-08-21T03:24:57;4.80;;;2.60;;
67500;SDS011;54349;52.528;19.760;2022-08-21T03:27:27;5.80;;;2.80;;
67500;SDS011;54349;52.528;19.760;2022-08-21T03:29:57;5.70;;;2.70;;
67500;SDS011;54349;52.528;19.760;2022-08-21T03:32:26;5.40;;;2.70;;
67500;SDS011;54349;52.528;19.760;2022-08-21T03:34:54;4.90;;;2.90;;
67500;SDS011;54349;52.528;19.760;2022-08-21T03:37:23;4.50;;;2.60;;
67500;SDS011;54349;52.528;19.760;2022-08-21T03:39:55;4.20;;;2.70;;
67500;SDS011;54349;52.528;19.760;2022-08-21T03:42:24;4.90;;;2.90;;
67500;SDS011;54349;52.528;19.760;2022-08-21T03:44:52;4.90;;;2.90;;
67500;SDS011;54349;52.528;19.760;2022-08-21T03:47:20;4.70;;;2.90;;
67500;SDS011;54349;52.528;19.760;2022-08-21T03:49:49;4.50;;;2.80;;
67500;SDS011;54349;52.528;19.760;2022-08-21T03:52:18;4.60;;;2.70;;
67500;SDS011;54349;52.528;19.760;2022-08-21T03:54:46;4.50;;;2.70;;
67500;SDS011;54349;52.528;19.760;2022-08-21T03:57:14;6.40;;;3.10;;
67500;SDS011;54349;52.528;19.760;2022-08-21T03:59:42;4.70;;;3.00;;
67500;SDS011;54349;52.528;19.760;2022-08-21T04:02:13;4.30;;;2.80;;
67500;SDS011;54349;52.528;19.760;2022-08-21T04:04:46;4.60;;;2.90;;
67500;SDS011;54349;52.528;19.760;2022-08-21T04:07:14;4.60;;;2.70;;
67500;SDS011;54349;52.528;19.760;2022-08-21T04:09:42;4.40;;;3.00;;
67500;SDS011;54349;52.528;19.760;2022-08-21T04:12:11;4.80;;;2.90;;
67500;SDS011;54349;52.528;19.760;2022-08-21T04:14:40;3.80;;;2.60;;
67500;SDS011;54349;52.528;19.760;2022-08-21T04:17:09;4.70;;;2.80;;
67500;SDS011;54349;52.528;19.760;2022-08-21T04:19:37;4.90;;;2.90;;
67500;SDS011;54349;52.528;19.760;2022-08-21T04:22:05;3.90;;;2.60;;
67500;SDS011;54349;52.528;19.760;2022-08-21T04:24:33;4.00;;;2.60;;
67500;SDS011;54349;52.528;19.760;2022-08-21T04:27:02;5.70;;;3.10;;
67500;SDS011;54349;52.528;19.760;2022-08-21T04:29:30;4.30;;;3.00;;
67500;SDS011;54349;52.528;19.760;2022-08-21T04:32:00;5.00;;;3.10;;
67500;SDS011;54349;52.528;19.760;2022-08-21T04:34:29;4.80;;;3.00;;
67500;SDS011;54349;52.528;19.760;2022-08-21T04:36:57;5.80;;;3.10;;
67500;SDS011;54349;52.528;19.760;2022-08-21T04:39:25;4.20;;;2.90;;
67500;SDS011;54349;52.528;19.760;2022-08-21T04:41:56;4.40;;;3.00;;
67500;SDS011;54349;52.528;19.760;2022-08-21T04:44:24;6.40;;;3.00;;
67500;SDS011;54349;52.528;19.760;2022-08-21T04:46:53;6.00;;;3.00;;
67500;SDS011;54349;52.528;19.760;2022-08-21T04:49:21;5.00;;;3.10;;
67500;SDS011;54349;52.528;19.760;2022-08-21T04:51:50;4.60;;;3.20;;
67500;SDS011;54349;52.528;19.760;2022-08-21T04:54:21;4.60;;;2.90;;
67500;SDS011;54349;52.528;19.760;2022-08-21T04:56:58;4.70;;;3.20;;
67500;SDS011;54349;52.528;19.760;2022-08-21T04:59:44;5.10;;;3.10;;
67500;SDS011;54349;52.528;19.760;2022-08-21T05:02:15;4.80;;;3.10;;
67500;SDS011;54349;52.528;19.760;2022-08-21T05:04:50;4.60;;;3.00;;
67500;SDS011;54349;52.528;19.760;2022-08-21T05:07:23;7.10;;;3.00;;
67500;SDS011;54349;52.528;19.760;2022-08-21T05:10:10;4.00;;;2.80;;
67500;SDS011;54349;52.528;19.760;2022-08-21T05:12:41;4.90;;;3.00;;
67500;SDS011;54349;52.528;19.760;2022-08-21T05:15:12;4.80;;;3.10;;
67500;SDS011;54349;52.528;19.760;2022-08-21T05:17:41;5.40;;;3.20;;
67500;SDS011;54349;52.528;19.760;2022-08-21T05:20:10;5.10;;;2.90;;
67500;SDS011;54349;52.528;19.760;2022-08-21T05:22:39;5.00;;;3.40;;
67500;SDS011;54349;52.528;19.760;2022-08-21T05:25:08;4.50;;;2.90;;
67500;SDS011;54349;52.528;19.760;2022-08-21T05:27:38;5.40;;;3.20;;
67500;SDS011;54349;52.528;19.760;2022-08-21T05:30:10;4.20;;;2.70;;
67500;SDS011;54349;52.528;19.760;2022-08-21T05:32:38;4.80;;;3.10;;
67500;SDS011;54349;52.528;19.760;2022-08-21T05:35:07;5.10;;;3.20;;
67500;SDS011;54349;52.528;19.760;2022-08-21T05:37:36;4.40;;;3.10;;
67500;SDS011;54349;52.528;19.760;2022-08-21T05:40:05;4.90;;;3.30;;
67500;SDS011;54349;52.528;19.760;2022-08-21T05:45:27;4.90;;;3.30;;
67500;SDS011;54349;52.528;19.760;2022-08-21T05:48:19;4.90;;;3.10;;
67500;SDS011;54349;52.528;19.760;2022-08-21T05:50:51;6.00;;;3.00;;
67500;SDS011;54349;52.528;19.760;2022-08-21T05:53:21;6.60;;;3.40;;
67500;SDS011;54349;52.528;19.760;2022-08-21T05:55:51;4.60;;;3.40;;
67500;SDS011;54349;52.528;19.760;2022-08-21T05:58:21;5.00;;;3.10;;
67500;SDS011;54349;52.528;19.760;2022-08-21T06:00:51;4.10;;;3.00;;
67500;SDS011;54349;52.528;19.760;2022-08-21T06:03:30;5.10;;;3.20;;
67500;SDS011;54349;52.528;19.760;2022-08-21T06:06:02;5.10;;;3.00;;
67500;SDS011;54349;52.528;19.760;2022-08-21T06:08:31;5.30;;;3.30;;
67500;SDS011;54349;52.528;19.760;2022-08-21T06:11:01;4.70;;;3.30;;
67500;SDS011;54349;52.528;19.760;2022-08-21T06:13:30;6.20;;;3.30;;
67500;SDS011;54349;52.528;19.760;2022-08-21T06:16:14;4.30;;;3.10;;
67500;SDS011;54349;52.528;19.760;2022-08-21T06:18:45;5.00;;;3.20;;
67500;SDS011;54349;52.528;19.760;2022-08-21T06:21:13;5.00;;;3.30;;
67500;SDS011;54349;52.528;19.760;2022-08-21T06:23:42;4.80;;;2.90;;
67500;SDS011;54349;52.528;19.760;2022-08-21T06:26:13;4.60;;;3.10;;
67500;SDS011;54349;52.528;19.760;2022-08-21T06:28:42;4.80;;;3.10;;
67500;SDS011;54349;52.528;19.760;2022-08-21T06:31:13;5.80;;;3.60;;
67500;SDS011;54349;52.528;19.760;2022-08-21T06:33:44;5.00;;;3.20;;
67500;SDS011;54349;52.528;19.760;2022-08-21T06:36:13;4.80;;;3.00;;
67500;SDS011;54349;52.528;19.760;2022-08-21T06:38:41;5.40;;;3.30;;
67500;SDS011;54349;52.528;19.760;2022-08-21T06:41:19;4.40;;;3.10;;
67500;SDS011;54349;52.528;19.760;2022-08-21T06:43:53;5.10;;;3.50;;
67500;SDS011;54349;52.528;19.760;2022-08-21T06:46:28;5.20;;;3.40;;
67500;SDS011;54349;52.528;19.760;2022-08-21T06:48:59;4.50;;;3.20;;
67500;SDS011;54349;52.528;19.760;2022-08-21T06:51:31;4.50;;;3.30;;
67500;SDS011;54349;52.528;19.760;2022-08-21T06:54:03;4.60;;;3.30;;
67500;SDS011;54349;52.528;19.760;2022-08-21T06:56:34;4.50;;;3.20;;
67500;SDS011;54349;52.528;19.760;2022-08-21T06:59:05;4.50;;;3.10;;
67500;SDS011;54349;52.528;19.760;2022-08-21T07:01:34;5.30;;;3.20;;
67500;SDS011;54349;52.528;19.760;2022-08-21T07:04:04;4.80;;;3.30;;
67500;SDS011;54349;52.528;19.760;2022-08-21T07:06:32;4.60;;;3.20;;
67500;SDS011;54349;52.528;19.760;2022-08-21T07:09:02;4.90;;;3.00;;
67500;SDS011;54349;52.528;19.760;2022-08-21T07:11:31;5.00;;;3.50;;
67500;SDS011;54349;52.528;19.760;2022-08-21T07:14:09;5.00;;;3.10;;
67500;SDS011;54349;52.528;19.760;2022-08-21T07:16:48;5.10;;;3.30;;
67500;SDS011;54349;52.528;19.760;2022-08-21T07:19:17;5.60;;;3.30;;
67500;SDS011;54349;52.528;19.760;2022-08-21T07:21:46;4.70;;;3.10;;
67500;SDS011;54349;52.528;19.760;2022-08-21T07:24:14;4.80;;;3.20;;
67500;SDS011;54349;52.528;19.760;2022-08-21T07:26:42;5.40;;;3.50;;
67500;SDS011;54349;52.528;19.760;2022-08-21T07:29:10;4.70;;;3.20;;
67500;SDS011;54349;52.528;19.760;2022-08-21T07:31:38;4.90;;;3.40;;
67500;SDS011;54349;52.528;19.760;2022-08-21T07:34:07;4.80;;;3.00;;
67500;SDS011;54349;52.528;19.760;2022-08-21T07:36:36;5.50;;;3.20;;
67500;SDS011;54349;52.528;19.760;2022-08-21T07:39:05;4.60;;;3.20;;
67500;SDS011;54349;52.528;19.760;2022-08-21T07:41:33;4.70;;;3.40;;
67500;SDS011;54349;52.528;19.760;2022-08-21T07:44:03;5.50;;;3.40;;
67500;SDS011;54349;52.528;19.760;2022-08-21T07:46:33;5.10;;;3.40;;
67500;SDS011;54349;52.528;19.760;2022-08-21T07:49:01;4.50;;;3.10;;
67500;SDS011;54349;52.528;19.760;2022-08-21T07:51:29;4.90;;;3.40;;
67500;SDS011;54349;52.528;19.760;2022-08-21T07:53:58;5.60;;;3.20;;
67500;SDS011;54349;52.528;19.760;2022-08-21T07:56:30;4.70;;;3.30;;
67500;SDS011;54349;52.528;19.760;2022-08-21T07:58:59;5.10;;;3.40;;
67500;SDS011;54349;52.528;19.760;2022-08-21T08:01:30;5.60;;;3.80;;
67500;SDS011;54349;52.528;19.760;2022-08-21T08:03:58;5.00;;;3.40;;
67500;SDS011;54349;52.528;19.760;2022-08-21T08:06:26;5.70;;;3.60;;
67500;SDS011;54349;52.528;19.760;2022-08-21T08:08:54;6.20;;;3.20;;
67500;SDS011;54349;52.528;19.760;2022-08-21T08:11:22;4.70;;;3.50;;
67500;SDS011;54349;52.528;19.760;2022-08-21T08:13:52;5.50;;;3.60;;
67500;SDS011;54349;52.528;19.760;2022-08-21T08:16:20;5.50;;;3.50;;
67500;SDS011;54349;52.528;19.760;2022-08-21T08:18:49;5.00;;;3.40;;
67500;SDS011;54349;52.528;19.760;2022-08-21T08:21:18;6.40;;;3.30;;
67500;SDS011;54349;52.528;19.760;2022-08-21T08:23:49;5.40;;;3.50;;
67500;SDS011;54349;52.528;19.760;2022-08-21T08:26:17;5.00;;;3.50;;
67500;SDS011;54349;52.528;19.760;2022-08-21T08:28:46;6.60;;;3.60;;
67500;SDS011;54349;52.528;19.760;2022-08-21T08:31:15;6.20;;;3.70;;
67500;SDS011;54349;52.528;19.760;2022-08-21T08:33:43;5.80;;;3.70;;
67500;SDS011;54349;52.528;19.760;2022-08-21T08:36:18;6.00;;;3.60;;
67500;SDS011;54349;52.528;19.760;2022-08-21T08:38:47;6.30;;;3.70;;
67500;SDS011;54349;52.528;19.760;2022-08-21T08:43:52;6.80;;;3.90;;
67500;SDS011;54349;52.528;19.760;2022-08-21T08:46:39;5.90;;;3.60;;
67500;SDS011;54349;52.528;19.760;2022-08-21T08:49:15;5.50;;;3.60;;
67500;SDS011;54349;52.528;19.760;2022-08-21T08:52:09;5.30;;;3.60;;
67500;SDS011;54349;52.528;19.760;2022-08-21T08:54:52;6.50;;;3.90;;
67500;SDS011;54349;52.528;19.760;2022-08-21T08:57:24;5.50;;;3.50;;
67500;SDS011;54349;52.528;19.760;2022-08-21T08:59:58;4.80;;;3.30;;
67500;SDS011;54349;52.528;19.760;2022-08-21T09:02:29;6.50;;;3.60;;
67500;SDS011;54349;52.528;19.760;2022-08-21T09:04:59;8.60;;;4.00;;
67500;SDS011;54349;52.528;19.760;2022-08-21T09:07:50;5.10;;;3.40;;
67500;SDS011;54349;52.528;19.760;2022-08-21T09:10:48;6.20;;;3.40;;
67500;SDS011;54349;52.528;19.760;2022-08-21T09:13:50;5.20;;;3.30;;
67500;SDS011;54349;52.528;19.760;2022-08-21T09:16:40;5.00;;;3.50;;
67500;SDS011;54349;52.528;19.760;2022-08-21T09:22:41;5.90;;;3.70;;
67500;SDS011;54349;52.528;19.760;2022-08-21T09:25:28;5.20;;;3.20;;
67500;SDS011;54349;52.528;19.760;2022-08-21T09:28:08;7.10;;;3.60;;
67500;SDS011;54349;52.528;19.760;2022-08-21T09:30:40;5.20;;;3.50;;
67500;SDS011;54349;52.528;19.760;2022-08-21T09:33:11;5.50;;;3.70;;
67500;SDS011;54349;52.528;19.760;2022-08-21T09:35:52;5.70;;;3.70;;
67500;SDS011;54349;52.528;19.760;2022-08-21T09:38:26;5.30;;;3.60;;
67500;SDS011;54349;52.528;19.760;2022-08-21T09:41:09;5.30;;;3.30;;
67500;SDS011;54349;52.528;19.760;2022-08-21T09:43:38;5.50;;;3.40;;
67500;SDS011;54349;52.528;19.760;2022-08-21T09:46:09;6.00;;;3.60;;
67500;SDS011;54349;52.528;19.760;2022-08-21T09:48:55;5.30;;;3.50;;
67500;SDS011;54349;52.528;19.760;2022-08-21T09:51:36;6.40;;;3.90;;
67500;SDS011;54349;52.528;19.760;2022-08-21T09:57:11;6.20;;;3.50;;
67500;SDS011;54349;52.528;19.760;2022-08-21T10:02:50;6.10;;;3.30;;
67500;SDS011;54349;52.528;19.760;2022-08-21T10:05:26;7.70;;;4.10;;
67500;SDS011;54349;52.528;19.760;2022-08-21T10:07:55;5.90;;;4.30;;
67500;SDS011;54349;52.528;19.760;2022-08-21T10:10:29;6.80;;;4.50;;
67500;SDS011;54349;52.528;19.760;2022-08-21T10:13:10;7.60;;;4.40;;
67500;SDS011;54349;52.528;19.760;2022-08-21T10:18:41;6.60;;;4.50;;
67500;SDS011;54349;52.528;19.760;2022-08-21T10:21:17;7.80;;;5.00;;
67500;SDS011;54349;52.528;19.760;2022-08-21T10:32:47;6.80;;;4.40;;
67500;SDS011;54349;52.528;19.760;2022-08-21T10:42:21;5.90;;;4.30;;
67500;SDS011;54349;52.528;19.760;2022-08-21T10:48:44;6.40;;;4.20;;
67500;SDS011;54349;52.528;19.760;2022-08-21T10:54:38;7.00;;;4.80;;
67500;SDS011;54349;52.528;19.760;2022-08-21T10:57:27;5.70;;;4.20;;
67500;SDS011;54349;52.528;19.760;2022-08-21T11:00:12;6.10;;;4.30;;
67500;SDS011;54349;52.528;19.760;2022-08-21T11:02:55;6.00;;;4.30;;
67500;SDS011;54349;52.528;19.760;2022-08-21T11:05:34;6.80;;;4.00;;
67500;SDS011;54349;52.528;19.760;2022-08-21T11:08:17;7.00;;;4.20;;
67500;SDS011;54349;52.528;19.760;2022-08-21T11:10:58;7.00;;;4.00;;
67500;SDS011;54349;52.528;19.760;2022-08-21T11:13:52;7.80;;;4.20;;
67500;SDS011;54349;52.528;19.760;2022-08-21T11:19:54;5.40;;;4.10;;
67500;SDS011;54349;52.528;19.760;2022-08-21T11:22:46;5.50;;;4.10;;
67500;SDS011;54349;52.528;19.760;2022-08-21T11:25:29;7.00;;;4.30;;
67500;SDS011;54349;52.528;19.760;2022-08-21T11:28:10;6.70;;;4.40;;
67500;SDS011;54349;52.528;19.760;2022-08-21T11:37:23;6.10;;;3.90;;
67500;SDS011;54349;52.528;19.760;2022-08-21T11:40:11;7.30;;;4.20;;
67500;SDS011;54349;52.528;19.760;2022-08-21T11:45:33;6.40;;;3.90;;
67500;SDS011;54349;52.528;19.760;2022-08-21T11:52:07;5.20;;;3.90;;
67500;SDS011;54349;52.528;19.760;2022-08-21T12:00:58;6.00;;;4.10;;
67500;SDS011;54349;52.528;19.760;2022-08-21T12:03:37;6.20;;;4.10;;
67500;SDS011;54349;52.528;19.760;2022-08-21T12:06:38;5.60;;;3.90;;
67500;SDS011;54349;52.528;19.760;2022-08-21T12:09:27;5.10;;;3.70;;
67500;SDS011;54349;52.528;19.760;2022-08-21T12:12:10;5.80;;;4.10;;
67500;SDS011;54349;52.528;19.760;2022-08-21T12:15:25;5.30;;;3.80;;
67500;SDS011;54349;52.528;19.760;2022-08-21T12:18:02;5.40;;;4.00;;
67500;SDS011;54349;52.528;19.760;2022-08-21T12:26:58;5.10;;;3.80;;
67500;SDS011;54349;52.528;19.760;2022-08-21T12:29:32;5.70;;;4.00;;
67500;SDS011;54349;52.528;19.760;2022-08-21T12:32:22;7.50;;;3.90;;
67500;SDS011;54349;52.528;19.760;2022-08-21T12:35:05;5.70;;;3.90;;
67500;SDS011;54349;52.528;19.760;2022-08-21T12:41:00;6.70;;;3.90;;
67500;SDS011;54349;52.528;19.760;2022-08-21T12:43:40;6.60;;;4.10;;
67500;SDS011;54349;52.528;19.760;2022-08-21T12:49:28;5.00;;;3.80;;
67500;SDS011;54349;52.528;19.760;2022-08-21T12:52:23;5.90;;;4.10;;
67500;SDS011;54349;52.528;19.760;2022-08-21T12:55:12;5.60;;;4.30;;
67500;SDS011;54349;52.528;19.760;2022-08-21T12:57:43;6.60;;;4.10;;
67500;SDS011;54349;52.528;19.760;2022-08-21T13:00:20;5.80;;;3.80;;
67500;SDS011;54349;52.528;19.760;2022-08-21T13:02:51;5.80;;;3.80;;
67500;SDS011;54349;52.528;19.760;2022-08-21T13:05:33;7.10;;;4.10;;
67500;SDS011;54349;52.528;19.760;2022-08-21T13:08:05;5.70;;;3.90;;
67500;SDS011;54349;52.528;19.760;2022-08-21T13:10:37;6.50;;;4.20;;
67500;SDS011;54349;52.528;19.760;2022-08-21T13:13:18;5.70;;;4.10;;
67500;SDS011;54349;52.528;19.760;2022-08-21T13:16:03;7.00;;;4.00;;
67500;SDS011;54349;52.528;19.760;2022-08-21T13:18:51;5.80;;;4.00;;
67500;SDS011;54349;52.528;19.760;2022-08-21T13:21:30;5.40;;;3.90;;
67500;SDS011;54349;52.528;19.760;2022-08-21T13:27:18;5.90;;;3.80;;
67500;SDS011;54349;52.528;19.760;2022-08-21T13:29:48;7.20;;;4.10;;
67500;SDS011;54349;52.528;19.760;2022-08-21T13:32:25;5.40;;;3.90;;
67500;SDS011;54349;52.528;19.760;2022-08-21T13:34:55;4.70;;;3.60;;
67500;SDS011;54349;52.528;19.760;2022-08-21T13:37:24;5.70;;;3.90;;
67500;SDS011;54349;52.528;19.760;2022-08-21T13:39:54;4.90;;;3.60;;
67500;SDS011;54349;52.528;19.760;2022-08-21T13:42:23;5.90;;;3.90;;
67500;SDS011;54349;52.528;19.760;2022-08-21T13:44:52;5.00;;;3.50;;
67500;SDS011;54349;52.528;19.760;2022-08-21T13:47:21;4.90;;;3.60;;
67500;SDS011;54349;52.528;19.760;2022-08-21T13:49:51;5.20;;;3.50;;
67500;SDS011;54349;52.528;19.760;2022-08-21T13:52:26;5.20;;;3.50;;
67500;SDS011;54349;52.528;19.760;2022-08-21T13:55:15;4.60;;;3.20;;
67500;SDS011;54349;52.528;19.760;2022-08-21T13:57:44;5.10;;;3.60;;
67500;SDS011;54349;52.528;19.760;2022-08-21T14:00:17;5.50;;;3.30;;
67500;SDS011;54349;52.528;19.760;2022-08-21T14:02:50;4.90;;;3.50;;
67500;SDS011;54349;52.528;19.760;2022-08-21T14:05:26;5.40;;;3.20;;
67500;SDS011;54349;52.528;19.760;2022-08-21T14:08:05;5.20;;;3.20;;
67500;SDS011;54349;52.528;19.760;2022-08-21T14:10:43;5.10;;;3.30;;
67500;SDS011;54349;52.528;19.760;2022-08-21T14:13:40;5.10;;;3.50;;
67500;SDS011;54349;52.528;19.760;2022-08-21T14:16:19;5.00;;;3.30;;
67500;SDS011;54349;52.528;19.760;2022-08-21T14:21:40;4.60;;;3.10;;
67500;SDS011;54349;52.528;19.760;2022-08-21T14:26:55;4.30;;;3.20;;
67500;SDS011;54349;52.528;19.760;2022-08-21T14:29:39;4.90;;;3.10;;
67500;SDS011;54349;52.528;19.760;2022-08-21T14:32:19;5.00;;;3.30;;
67500;SDS011;54349;52.528;19.760;2022-08-21T14:34:59;4.30;;;2.90;;
67500;SDS011;54349;52.528;19.760;2022-08-21T14:37:27;4.00;;;2.90;;
67500;SDS011;54349;52.528;19.760;2022-08-21T14:39:55;4.10;;;2.90;;
67500;SDS011;54349;52.528;19.760;2022-08-21T14:42:24;4.90;;;3.40;;
67500;SDS011;54349;52.528;19.760;2022-08-21T14:44:56;4.10;;;2.80;;
67500;SDS011;54349;52.528;19.760;2022-08-21T14:47:27;4.60;;;3.10;;
67500;SDS011;54349;52.528;19.760;2022-08-21T14:49:56;3.90;;;2.80;;
67500;SDS011;54349;52.528;19.760;2022-08-21T14:52:24;4.30;;;2.90;;
67500;SDS011;54349;52.528;19.760;2022-08-21T14:54:53;4.40;;;3.10;;
67500;SDS011;54349;52.528;19.760;2022-08-21T14:57:29;4.90;;;3.10;;
67500;SDS011;54349;52.528;19.760;2022-08-21T14:59:59;4.50;;;3.00;;
67500;SDS011;54349;52.528;19.760;2022-08-21T15:02:29;4.10;;;2.90;;
67500;SDS011;54349;52.528;19.760;2022-08-21T15:04:57;3.90;;;2.90;;
67500;SDS011;54349;52.528;19.760;2022-08-21T15:07:25;4.50;;;2.80;;
67500;SDS011;54349;52.528;19.760;2022-08-21T15:09:53;3.90;;;3.00;;
67500;SDS011;54349;52.528;19.760;2022-08-21T15:12:23;4.50;;;2.90;;
67500;SDS011;54349;52.528;19.760;2022-08-21T15:14:52;4.10;;;2.90;;
67500;SDS011;54349;52.528;19.760;2022-08-21T15:17:21;3.90;;;2.80;;
67500;SDS011;54349;52.528;19.760;2022-08-21T15:19:49;3.90;;;2.70;;
67500;SDS011;54349;52.528;19.760;2022-08-21T15:22:18;4.10;;;2.80;;
67500;SDS011;54349;52.528;19.760;2022-08-21T15:24:54;3.80;;;2.70;;
67500;SDS011;54349;52.528;19.760;2022-08-21T15:27:22;4.00;;;2.80;;
67500;SDS011;54349;52.528;19.760;2022-08-21T15:29:50;4.60;;;3.20;;
67500;SDS011;54349;52.528;19.760;2022-08-21T15:32:24;4.90;;;2.80;;
67500;SDS011;54349;52.528;19.760;2022-08-21T15:37:25;4.10;;;2.80;;
67500;SDS011;54349;52.528;19.760;2022-08-21T15:39:53;3.40;;;2.50;;
67500;SDS011;54349;52.528;19.760;2022-08-21T15:42:22;4.00;;;2.60;;
67500;SDS011;54349;52.528;19.760;2022-08-21T15:44:54;3.30;;;2.50;;
67500;SDS011;54349;52.528;19.760;2022-08-21T15:47:36;4.30;;;3.10;;
67500;SDS011;54349;52.528;19.760;2022-08-21T15:50:08;4.80;;;3.30;;
67500;SDS011;54349;52.528;19.760;2022-08-21T15:52:39;4.00;;;3.00;;
67500;SDS011;54349;52.528;19.760;2022-08-21T15:55:09;4.90;;;3.40;;
67500;SDS011;54349;52.528;19.760;2022-08-21T15:57:44;5.10;;;3.60;;
67500;SDS011;54349;52.528;19.760;2022-08-21T16:00:26;5.10;;;3.40;;
67500;SDS011;54349;52.528;19.760;2022-08-21T16:03:03;5.60;;;3.80;;
67500;SDS011;54349;52.528;19.760;2022-08-21T16:05:33;6.30;;;4.20;;
67500;SDS011;54349;52.528;19.760;2022-08-21T16:08:02;5.80;;;3.60;;
67500;SDS011;54349;52.528;19.760;2022-08-21T16:10:30;5.30;;;3.50;;
67500;SDS011;54349;52.528;19.760;2022-08-21T16:13:03;5.60;;;4.00;;
67500;SDS011;54349;52.528;19.760;2022-08-21T16:15:34;5.80;;;4.00;;
67500;SDS011;54349;52.528;19.760;2022-08-21T16:18:03;6.00;;;4.20;;
67500;SDS011;54349;52.528;19.760;2022-08-21T16:20:32;6.00;;;4.30;;
67500;SDS011;54349;52.528;19.760;2022-08-21T16:23:01;5.80;;;3.90;;
67500;SDS011;54349;52.528;19.760;2022-08-21T16:25:29;7.00;;;4.00;;
67500;SDS011;54349;52.528;19.760;2022-08-21T16:28:01;5.50;;;4.00;;
67500;SDS011;54349;52.528;19.760;2022-08-21T16:30:37;5.70;;;3.80;;
67500;SDS011;54349;52.528;19.760;2022-08-21T16:33:05;5.30;;;3.70;;
67500;SDS011;54349;52.528;19.760;2022-08-21T16:35:35;5.10;;;3.80;;
67500;SDS011;54349;52.528;19.760;2022-08-21T16:38:04;7.00;;;4.10;;